sensor_id;sensor_type;location;lat;lon;timestamp;P1;durP1;ratioP1;P2;durP2;ratioP2
6111;SDS011;3086;48.802;9.394;2023-08-24T00:02:01;7.07;;;6.07;;
6111;SDS011;3086;48.802;9.394;2023-08-24T00:05:23;6.87;;;5.17;;
6111;SDS011;3086;48.802;9.394;2023-08-24T00:08:44;6.60;;;5.70;;
6111;SDS011;3086;48.802;9.394;2023-08-24T00:12:07;6.60;;;5.90;;
6111;SDS011;3086;48.802;9.394;2023-08-24T00:15:30;5.90;;;5.20;;
6111;SDS011;3086;48.802;9.394;2023-08-24T00:18:51;7.47;;;5.60;;
6111;SDS011;3086;48.802;9.394;2023-08-24T00:22:13;6.57;;;6.07;;
6111;SDS011;3086;48.802;9.394;2023-08-24T00:25:35;8.77;;;5.93;;
6111;SDS011;3086;48.802;9.394;2023-08-24T00:28:58;7.93;;;5.00;;
6111;SDS011;3086;48.802;9.394;2023-08-24T00:32:19;9.00;;;5.77;;
6111;SDS011;3086;48.802;9.394;2023-08-24T00:35:41;7.33;;;6.57;;
6111;SDS011;3086;48.802;9.394;2023-08-24T00:39:02;7.10;;;5.43;;
6111;SDS011;3086;48.802;9.394;2023-08-24T00:42:24;7.37;;;6.40;;
6111;SDS011;3086;48.802;9.394;2023-08-24T00:45:47;6.17;;;5.67;;
6111;SDS011;3086;48.802;9.394;2023-08-24T00:49:09;8.90;;;5.53;;
6111;SDS011;3086;48.802;9.394;2023-08-24T00:52:30;10.33;;;5.87;;
6111;SDS011;3086;48.802;9.394;2023-08-24T00:55:52;10.90;;;5.93;;
6111;SDS011;3086;48.802;9.394;2023-08-24T00:59:14;13.10;;;6.40;;
6111;SDS011;3086;48.802;9.394;2023-08-24T01:02:37;6.50;;;5.90;;
6111;SDS011;3086;48.802;9.394;2023-08-24T01:05:59;7.27;;;5.70;;
6111;SDS011;3086;48.802;9.394;2023-08-24T01:09:20;6.27;;;5.50;;
6111;SDS011;3086;48.802;9.394;2023-08-24T01:12:46;6.17;;;5.37;;
6111;SDS011;3086;48.802;9.394;2023-08-24T01:16:16;8.03;;;5.60;;
6111;SDS011;3086;48.802;9.394;2023-08-24T01:19:42;5.93;;;5.33;;
6111;SDS011;3086;48.802;9.394;2023-08-24T01:23:07;7.27;;;5.43;;
6111;SDS011;3086;48.802;9.394;2023-08-24T01:26:42;6.67;;;6.07;;
6111;SDS011;3086;48.802;9.394;2023-08-24T01:30:05;7.20;;;6.33;;
6111;SDS011;3086;48.802;9.394;2023-08-24T01:33:27;8.77;;;6.13;;
6111;SDS011;3086;48.802;9.394;2023-08-24T01:36:49;8.40;;;6.27;;
6111;SDS011;3086;48.802;9.394;2023-08-24T01:40:13;7.07;;;6.03;;
6111;SDS011;3086;48.802;9.394;2023-08-24T01:43:39;7.40;;;5.80;;
6111;SDS011;3086;48.802;9.394;2023-08-24T01:47:01;8.70;;;5.90;;
6111;SDS011;3086;48.802;9.394;2023-08-24T01:50:25;7.83;;;6.50;;
6111;SDS011;3086;48.802;9.394;2023-08-24T01:53:47;8.00;;;6.13;;
6111;SDS011;3086;48.802;9.394;2023-08-24T01:57:08;7.57;;;6.50;;
6111;SDS011;3086;48.802;9.394;2023-08-24T02:00:31;9.60;;;6.57;;
6111;SDS011;3086;48.802;9.394;2023-08-24T02:03:53;8.07;;;6.17;;
6111;SDS011;3086;48.802;9.394;2023-08-24T02:07:14;6.77;;;6.10;;
6111;SDS011;3086;48.802;9.394;2023-08-24T02:10:36;10.07;;;6.57;;
6111;SDS011;3086;48.802;9.394;2023-08-24T02:13:57;8.23;;;6.70;;
6111;SDS011;3086;48.802;9.394;2023-08-24T02:17:20;7.17;;;5.90;;
6111;SDS011;3086;48.802;9.394;2023-08-24T02:20:42;7.27;;;5.80;;
6111;SDS011;3086;48.802;9.394;2023-08-24T02:24:04;7.33;;;6.63;;
6111;SDS011;3086;48.802;9.394;2023-08-24T02:27:26;8.03;;;7.23;;
6111;SDS011;3086;48.802;9.394;2023-08-24T02:30:47;7.13;;;6.40;;
6111;SDS011;3086;48.802;9.394;2023-08-24T02:34:10;7.87;;;6.33;;
6111;SDS011;3086;48.802;9.394;2023-08-24T02:37:31;7.23;;;5.90;;
6111;SDS011;3086;48.802;9.394;2023-08-24T02:41:02;7.97;;;7.17;;
6111;SDS011;3086;48.802;9.394;2023-08-24T02:44:24;7.00;;;6.40;;
6111;SDS011;3086;48.802;9.394;2023-08-24T02:47:45;9.70;;;6.53;;
6111;SDS011;3086;48.802;9.394;2023-08-24T02:51:08;7.07;;;6.37;;
6111;SDS011;3086;48.802;9.394;2023-08-24T02:54:30;12.57;;;6.50;;
6111;SDS011;3086;48.802;9.394;2023-08-24T02:57:51;8.60;;;7.23;;
6111;SDS011;3086;48.802;9.394;2023-08-24T03:01:13;9.73;;;6.83;;
6111;SDS011;3086;48.802;9.394;2023-08-24T03:04:34;7.07;;;6.37;;
6111;SDS011;3086;48.802;9.394;2023-08-24T03:07:57;7.57;;;6.20;;
6111;SDS011;3086;48.802;9.394;2023-08-24T03:11:19;9.83;;;7.30;;
6111;SDS011;3086;48.802;9.394;2023-08-24T03:14:40;6.93;;;6.33;;
6111;SDS011;3086;48.802;9.394;2023-08-24T03:18:02;5.97;;;5.40;;
6111;SDS011;3086;48.802;9.394;2023-08-24T03:21:24;6.67;;;6.10;;
6111;SDS011;3086;48.802;9.394;2023-08-24T03:24:47;5.77;;;5.23;;
6111;SDS011;3086;48.802;9.394;2023-08-24T03:28:09;7.67;;;6.50;;
6111;SDS011;3086;48.802;9.394;2023-08-24T03:31:30;7.37;;;6.47;;
6111;SDS011;3086;48.802;9.394;2023-08-24T03:34:53;7.33;;;6.13;;
6111;SDS011;3086;48.802;9.394;2023-08-24T03:38:15;6.80;;;6.10;;
6111;SDS011;3086;48.802;9.394;2023-08-24T03:41:38;7.43;;;6.57;;
6111;SDS011;3086;48.802;9.394;2023-08-24T03:44:59;6.40;;;5.90;;
6111;SDS011;3086;48.802;9.394;2023-08-24T03:48:21;7.07;;;6.23;;
6111;SDS011;3086;48.802;9.394;2023-08-24T03:51:42;6.93;;;6.33;;
6111;SDS011;3086;48.802;9.394;2023-08-24T03:55:04;6.73;;;6.10;;
6111;SDS011;3086;48.802;9.394;2023-08-24T03:58:28;8.17;;;6.93;;
6111;SDS011;3086;48.802;9.394;2023-08-24T04:01:50;7.90;;;6.40;;
6111;SDS011;3086;48.802;9.394;2023-08-24T04:05:11;8.30;;;6.70;;
6111;SDS011;3086;48.802;9.394;2023-08-24T04:08:33;7.30;;;6.57;;
6111;SDS011;3086;48.802;9.394;2023-08-24T04:11:55;7.60;;;6.80;;
6111;SDS011;3086;48.802;9.394;2023-08-24T04:15:17;9.03;;;6.60;;
6111;SDS011;3086;48.802;9.394;2023-08-24T04:18:39;6.43;;;5.77;;
6111;SDS011;3086;48.802;9.394;2023-08-24T04:22:01;6.53;;;5.90;;
6111;SDS011;3086;48.802;9.394;2023-08-24T04:25:23;7.10;;;6.40;;
6111;SDS011;3086;48.802;9.394;2023-08-24T04:28:44;7.30;;;6.60;;
6111;SDS011;3086;48.802;9.394;2023-08-24T04:32:07;8.33;;;6.20;;
6111;SDS011;3086;48.802;9.394;2023-08-24T04:35:29;7.27;;;6.03;;
6111;SDS011;3086;48.802;9.394;2023-08-24T04:38:50;8.13;;;7.33;;
6111;SDS011;3086;48.802;9.394;2023-08-24T04:42:12;7.03;;;6.27;;
6111;SDS011;3086;48.802;9.394;2023-08-24T04:45:33;7.23;;;6.53;;
6111;SDS011;3086;48.802;9.394;2023-08-24T04:48:56;7.20;;;6.60;;
6111;SDS011;3086;48.802;9.394;2023-08-24T04:52:18;8.27;;;6.70;;
6111;SDS011;3086;48.802;9.394;2023-08-24T04:55:39;7.67;;;6.70;;
6111;SDS011;3086;48.802;9.394;2023-08-24T04:59:01;7.33;;;6.73;;
6111;SDS011;3086;48.802;9.394;2023-08-24T05:02:22;7.70;;;7.00;;
6111;SDS011;3086;48.802;9.394;2023-08-24T05:05:45;7.60;;;5.97;;
6111;SDS011;3086;48.802;9.394;2023-08-24T05:09:08;10.30;;;6.30;;
6111;SDS011;3086;48.802;9.394;2023-08-24T05:12:30;7.00;;;6.30;;
6111;SDS011;3086;48.802;9.394;2023-08-24T05:15:53;8.80;;;6.33;;
6111;SDS011;3086;48.802;9.394;2023-08-24T05:19:15;6.53;;;6.03;;
6111;SDS011;3086;48.802;9.394;2023-08-24T05:22:38;6.57;;;5.97;;
6111;SDS011;3086;48.802;9.394;2023-08-24T05:26:01;8.83;;;5.40;;
6111;SDS011;3086;48.802;9.394;2023-08-24T05:29:23;7.27;;;5.80;;
6111;SDS011;3086;48.802;9.394;2023-08-24T05:32:45;6.80;;;6.07;;
6111;SDS011;3086;48.802;9.394;2023-08-24T05:36:09;7.07;;;6.47;;
6111;SDS011;3086;48.802;9.394;2023-08-24T05:39:31;8.27;;;6.80;;
6111;SDS011;3086;48.802;9.394;2023-08-24T05:42:53;6.77;;;5.83;;
6111;SDS011;3086;48.802;9.394;2023-08-24T05:46:15;7.97;;;5.93;;
6111;SDS011;3086;48.802;9.394;2023-08-24T05:49:36;6.30;;;4.83;;
6111;SDS011;3086;48.802;9.394;2023-08-24T05:52:58;7.07;;;5.10;;
6111;SDS011;3086;48.802;9.394;2023-08-24T05:56:21;6.90;;;5.67;;
6111;SDS011;3086;48.802;9.394;2023-08-24T05:59:43;5.40;;;5.00;;
6111;SDS011;3086;48.802;9.394;2023-08-24T06:03:04;6.43;;;5.63;;
6111;SDS011;3086;48.802;9.394;2023-08-24T06:06:26;7.63;;;5.63;;
6111;SDS011;3086;48.802;9.394;2023-08-24T06:09:47;8.63;;;5.40;;
6111;SDS011;3086;48.802;9.394;2023-08-24T06:13:10;7.50;;;5.43;;
6111;SDS011;3086;48.802;9.394;2023-08-24T06:16:32;10.83;;;5.50;;
6111;SDS011;3086;48.802;9.394;2023-08-24T06:19:53;9.23;;;5.23;;
6111;SDS011;3086;48.802;9.394;2023-08-24T06:23:15;6.50;;;5.30;;
6111;SDS011;3086;48.802;9.394;2023-08-24T06:26:37;8.07;;;5.10;;
6111;SDS011;3086;48.802;9.394;2023-08-24T06:30:00;7.03;;;4.67;;
6111;SDS011;3086;48.802;9.394;2023-08-24T06:33:21;6.30;;;4.80;;
6111;SDS011;3086;48.802;9.394;2023-08-24T06:36:50;6.03;;;5.43;;
6111;SDS011;3086;48.802;9.394;2023-08-24T06:40:11;6.53;;;5.03;;
6111;SDS011;3086;48.802;9.394;2023-08-24T06:43:34;5.70;;;4.80;;
6111;SDS011;3086;48.802;9.394;2023-08-24T06:46:59;8.00;;;4.77;;
6111;SDS011;3086;48.802;9.394;2023-08-24T06:50:21;6.40;;;5.23;;
6111;SDS011;3086;48.802;9.394;2023-08-24T06:53:42;7.60;;;5.27;;
6111;SDS011;3086;48.802;9.394;2023-08-24T06:57:05;5.77;;;5.13;;
6111;SDS011;3086;48.802;9.394;2023-08-24T07:00:26;6.40;;;4.90;;
6111;SDS011;3086;48.802;9.394;2023-08-24T07:03:49;10.73;;;4.90;;
6111;SDS011;3086;48.802;9.394;2023-08-24T07:07:11;6.40;;;5.20;;
6111;SDS011;3086;48.802;9.394;2023-08-24T07:10:33;6.80;;;5.23;;
6111;SDS011;3086;48.802;9.394;2023-08-24T07:13:54;8.63;;;5.70;;
6111;SDS011;3086;48.802;9.394;2023-08-24T07:17:16;5.67;;;5.13;;
6111;SDS011;3086;48.802;9.394;2023-08-24T07:20:39;5.93;;;5.40;;
6111;SDS011;3086;48.802;9.394;2023-08-24T07:24:01;7.33;;;5.70;;
6111;SDS011;3086;48.802;9.394;2023-08-24T07:27:22;8.63;;;5.90;;
6111;SDS011;3086;48.802;9.394;2023-08-24T07:30:44;10.63;;;5.47;;
6111;SDS011;3086;48.802;9.394;2023-08-24T07:34:05;5.47;;;4.97;;
6111;SDS011;3086;48.802;9.394;2023-08-24T07:37:28;9.80;;;5.50;;
6111;SDS011;3086;48.802;9.394;2023-08-24T07:40:50;5.27;;;4.77;;
6111;SDS011;3086;48.802;9.394;2023-08-24T07:44:11;7.30;;;5.27;;
6111;SDS011;3086;48.802;9.394;2023-08-24T07:47:33;9.07;;;5.57;;
6111;SDS011;3086;48.802;9.394;2023-08-24T07:50:54;7.10;;;5.20;;
6111;SDS011;3086;48.802;9.394;2023-08-24T07:54:17;7.97;;;5.50;;
6111;SDS011;3086;48.802;9.394;2023-08-24T07:57:40;7.07;;;5.60;;
6111;SDS011;3086;48.802;9.394;2023-08-24T08:01:01;6.73;;;5.40;;
6111;SDS011;3086;48.802;9.394;2023-08-24T08:04:23;7.70;;;5.03;;
6111;SDS011;3086;48.802;9.394;2023-08-24T08:07:44;5.53;;;5.00;;
6111;SDS011;3086;48.802;9.394;2023-08-24T08:11:07;7.17;;;4.67;;
6111;SDS011;3086;48.802;9.394;2023-08-24T08:14:29;8.00;;;4.60;;
6111;SDS011;3086;48.802;9.394;2023-08-24T08:17:51;6.83;;;4.93;;
6111;SDS011;3086;48.802;9.394;2023-08-24T08:21:15;6.57;;;4.43;;
6111;SDS011;3086;48.802;9.394;2023-08-24T08:24:38;6.87;;;4.33;;
6111;SDS011;3086;48.802;9.394;2023-08-24T08:28:00;9.80;;;5.10;;
6111;SDS011;3086;48.802;9.394;2023-08-24T08:31:22;6.60;;;4.73;;
6111;SDS011;3086;48.802;9.394;2023-08-24T08:34:44;5.60;;;4.80;;
6111;SDS011;3086;48.802;9.394;2023-08-24T08:38:05;8.20;;;4.90;;
6111;SDS011;3086;48.802;9.394;2023-08-24T08:41:30;8.43;;;4.70;;
6111;SDS011;3086;48.802;9.394;2023-08-24T08:44:55;6.07;;;3.97;;
6111;SDS011;3086;48.802;9.394;2023-08-24T08:48:16;5.37;;;4.50;;
6111;SDS011;3086;48.802;9.394;2023-08-24T08:51:39;6.80;;;4.23;;
6111;SDS011;3086;48.802;9.394;2023-08-24T08:55:01;5.80;;;4.43;;
6111;SDS011;3086;48.802;9.394;2023-08-24T08:58:26;6.53;;;4.30;;
6111;SDS011;3086;48.802;9.394;2023-08-24T09:01:49;6.60;;;4.20;;
6111;SDS011;3086;48.802;9.394;2023-08-24T09:05:12;5.17;;;3.60;;
6111;SDS011;3086;48.802;9.394;2023-08-24T09:08:34;9.13;;;4.20;;
6111;SDS011;3086;48.802;9.394;2023-08-24T09:11:56;9.57;;;4.20;;
6111;SDS011;3086;48.802;9.394;2023-08-24T09:15:23;5.40;;;4.00;;
6111;SDS011;3086;48.802;9.394;2023-08-24T09:18:47;5.63;;;4.57;;
6111;SDS011;3086;48.802;9.394;2023-08-24T09:22:08;8.87;;;4.20;;
6111;SDS011;3086;48.802;9.394;2023-08-24T09:25:30;5.93;;;4.00;;
6111;SDS011;3086;48.802;9.394;2023-08-24T09:28:51;5.13;;;4.20;;
6111;SDS011;3086;48.802;9.394;2023-08-24T09:32:13;5.97;;;4.00;;
6111;SDS011;3086;48.802;9.394;2023-08-24T09:35:36;8.43;;;4.40;;
6111;SDS011;3086;48.802;9.394;2023-08-24T09:38:58;7.83;;;4.70;;
6111;SDS011;3086;48.802;9.394;2023-08-24T09:42:24;6.47;;;4.30;;
6111;SDS011;3086;48.802;9.394;2023-08-24T09:45:49;6.67;;;4.33;;
6111;SDS011;3086;48.802;9.394;2023-08-24T09:49:11;4.83;;;3.73;;
6111;SDS011;3086;48.802;9.394;2023-08-24T09:52:34;5.67;;;4.20;;
6111;SDS011;3086;48.802;9.394;2023-08-24T09:55:58;7.13;;;3.93;;
6111;SDS011;3086;48.802;9.394;2023-08-24T09:59:21;6.47;;;4.40;;
6111;SDS011;3086;48.802;9.394;2023-08-24T10:02:46;7.13;;;4.70;;
6111;SDS011;3086;48.802;9.394;2023-08-24T10:06:10;6.47;;;4.30;;
6111;SDS011;3086;48.802;9.394;2023-08-24T10:09:37;6.63;;;4.20;;
6111;SDS011;3086;48.802;9.394;2023-08-24T10:13:04;5.13;;;4.27;;
6111;SDS011;3086;48.802;9.394;2023-08-24T10:16:28;5.77;;;4.27;;
6111;SDS011;3086;48.802;9.394;2023-08-24T10:19:50;6.97;;;4.23;;
6111;SDS011;3086;48.802;9.394;2023-08-24T10:23:13;4.43;;;4.03;;
6111;SDS011;3086;48.802;9.394;2023-08-24T10:26:37;4.80;;;4.40;;
6111;SDS011;3086;48.802;9.394;2023-08-24T10:30:00;4.33;;;3.93;;
6111;SDS011;3086;48.802;9.394;2023-08-24T10:33:22;5.30;;;4.80;;
6111;SDS011;3086;48.802;9.394;2023-08-24T10:36:46;6.90;;;5.17;;
6111;SDS011;3086;48.802;9.394;2023-08-24T10:40:09;4.93;;;4.43;;
6111;SDS011;3086;48.802;9.394;2023-08-24T10:43:35;5.77;;;3.90;;
6111;SDS011;3086;48.802;9.394;2023-08-24T10:47:06;5.10;;;4.40;;
6111;SDS011;3086;48.802;9.394;2023-08-24T10:50:39;6.03;;;4.33;;
6111;SDS011;3086;48.802;9.394;2023-08-24T10:54:00;5.37;;;4.40;;
6111;SDS011;3086;48.802;9.394;2023-08-24T10:57:25;5.97;;;4.43;;
6111;SDS011;3086;48.802;9.394;2023-08-24T11:00:49;7.33;;;4.70;;
6111;SDS011;3086;48.802;9.394;2023-08-24T11:04:11;5.27;;;4.77;;
6111;SDS011;3086;48.802;9.394;2023-08-24T11:07:33;5.73;;;4.67;;
6111;SDS011;3086;48.802;9.394;2023-08-24T11:10:54;5.10;;;4.20;;
6111;SDS011;3086;48.802;9.394;2023-08-24T11:14:22;5.30;;;4.50;;
6111;SDS011;3086;48.802;9.394;2023-08-24T11:17:47;5.03;;;4.37;;
6111;SDS011;3086;48.802;9.394;2023-08-24T11:21:35;4.67;;;4.27;;
6111;SDS011;3086;48.802;9.394;2023-08-24T11:24:57;5.97;;;4.70;;
6111;SDS011;3086;48.802;9.394;2023-08-24T11:28:19;5.97;;;4.97;;
6111;SDS011;3086;48.802;9.394;2023-08-24T11:31:43;5.30;;;4.40;;
6111;SDS011;3086;48.802;9.394;2023-08-24T11:35:07;7.47;;;4.73;;
6111;SDS011;3086;48.802;9.394;2023-08-24T11:38:35;6.50;;;4.80;;
6111;SDS011;3086;48.802;9.394;2023-08-24T11:41:59;6.00;;;4.60;;
6111;SDS011;3086;48.802;9.394;2023-08-24T11:48:53;7.17;;;4.60;;
6111;SDS011;3086;48.802;9.394;2023-08-24T11:52:16;6.13;;;4.97;;
6111;SDS011;3086;48.802;9.394;2023-08-24T11:55:39;6.40;;;4.50;;
6111;SDS011;3086;48.802;9.394;2023-08-24T11:59:01;7.50;;;4.73;;
6111;SDS011;3086;48.802;9.394;2023-08-24T12:02:23;6.60;;;4.40;;
6111;SDS011;3086;48.802;9.394;2023-08-24T12:05:44;6.80;;;4.73;;
6111;SDS011;3086;48.802;9.394;2023-08-24T12:09:07;8.00;;;4.73;;
6111;SDS011;3086;48.802;9.394;2023-08-24T12:12:29;8.93;;;4.33;;
6111;SDS011;3086;48.802;9.394;2023-08-24T12:15:52;7.60;;;4.60;;
6111;SDS011;3086;48.802;9.394;2023-08-24T12:19:15;5.97;;;4.50;;
6111;SDS011;3086;48.802;9.394;2023-08-24T12:22:36;5.23;;;4.50;;
6111;SDS011;3086;48.802;9.394;2023-08-24T12:26:00;5.10;;;4.53;;
6111;SDS011;3086;48.802;9.394;2023-08-24T12:29:22;6.10;;;4.47;;
6111;SDS011;3086;48.802;9.394;2023-08-24T12:32:43;6.53;;;4.70;;
6111;SDS011;3086;48.802;9.394;2023-08-24T12:36:06;6.77;;;4.43;;
6111;SDS011;3086;48.802;9.394;2023-08-24T12:39:28;5.60;;;4.80;;
6111;SDS011;3086;48.802;9.394;2023-08-24T12:42:50;5.07;;;4.47;;
6111;SDS011;3086;48.802;9.394;2023-08-24T12:46:12;5.67;;;4.87;;
6111;SDS011;3086;48.802;9.394;2023-08-24T12:49:34;6.43;;;4.50;;
6111;SDS011;3086;48.802;9.394;2023-08-24T12:52:55;8.87;;;4.60;;
6111;SDS011;3086;48.802;9.394;2023-08-24T12:56:20;6.27;;;4.40;;
6111;SDS011;3086;48.802;9.394;2023-08-24T12:59:52;5.27;;;4.17;;
6111;SDS011;3086;48.802;9.394;2023-08-24T13:03:14;10.60;;;5.27;;
6111;SDS011;3086;48.802;9.394;2023-08-24T13:06:36;7.57;;;4.60;;
6111;SDS011;3086;48.802;9.394;2023-08-24T13:09:57;6.27;;;4.13;;
6111;SDS011;3086;48.802;9.394;2023-08-24T13:13:19;7.03;;;4.77;;
6111;SDS011;3086;48.802;9.394;2023-08-24T13:16:42;8.15;;;4.70;;
6111;SDS011;3086;48.802;9.394;2023-08-24T13:20:04;9.02;;;5.10;;
6111;SDS011;3086;48.802;9.394;2023-08-24T13:23:27;6.45;;;4.47;;
6111;SDS011;3086;48.802;9.394;2023-08-24T13:26:49;6.70;;;4.25;;
6111;SDS011;3086;48.802;9.394;2023-08-24T13:30:11;7.20;;;4.53;;
6111;SDS011;3086;48.802;9.394;2023-08-24T13:33:34;7.35;;;4.45;;
6111;SDS011;3086;48.802;9.394;2023-08-24T13:36:55;13.63;;;4.97;;
6111;SDS011;3086;48.802;9.394;2023-08-24T13:40:17;6.55;;;4.40;;
6111;SDS011;3086;48.802;9.394;2023-08-24T13:43:39;6.75;;;4.70;;
6111;SDS011;3086;48.802;9.394;2023-08-24T13:47:02;8.13;;;4.30;;
6111;SDS011;3086;48.802;9.394;2023-08-24T13:50:25;8.60;;;4.95;;
6111;SDS011;3086;48.802;9.394;2023-08-24T13:53:47;6.75;;;4.50;;
6111;SDS011;3086;48.802;9.394;2023-08-24T13:57:08;7.93;;;4.95;;
6111;SDS011;3086;48.802;9.394;2023-08-24T14:00:30;6.65;;;4.45;;
6111;SDS011;3086;48.802;9.394;2023-08-24T14:03:51;7.72;;;4.93;;
6111;SDS011;3086;48.802;9.394;2023-08-24T14:07:14;8.43;;;4.32;;
6111;SDS011;3086;48.802;9.394;2023-08-24T14:10:36;11.27;;;4.93;;
6111;SDS011;3086;48.802;9.394;2023-08-24T14:13:57;7.45;;;4.43;;
6111;SDS011;3086;48.802;9.394;2023-08-24T14:17:19;9.25;;;5.00;;
6111;SDS011;3086;48.802;9.394;2023-08-24T14:20:41;12.10;;;4.53;;
6111;SDS011;3086;48.802;9.394;2023-08-24T14:24:04;7.38;;;4.20;;
6111;SDS011;3086;48.802;9.394;2023-08-24T14:27:25;8.40;;;4.53;;
6111;SDS011;3086;48.802;9.394;2023-08-24T14:30:47;10.32;;;4.53;;
6111;SDS011;3086;48.802;9.394;2023-08-24T14:34:08;10.73;;;4.35;;
6111;SDS011;3086;48.802;9.394;2023-08-24T14:37:30;12.15;;;4.65;;
6111;SDS011;3086;48.802;9.394;2023-08-24T14:40:54;8.57;;;4.38;;
6111;SDS011;3086;48.802;9.394;2023-08-24T14:44:16;9.80;;;4.85;;
6111;SDS011;3086;48.802;9.394;2023-08-24T14:47:37;9.60;;;4.30;;
6111;SDS011;3086;48.802;9.394;2023-08-24T14:50:59;8.63;;;4.53;;
6111;SDS011;3086;48.802;9.394;2023-08-24T14:54:21;8.77;;;4.47;;
6111;SDS011;3086;48.802;9.394;2023-08-24T14:57:44;10.37;;;4.47;;
6111;SDS011;3086;48.802;9.394;2023-08-24T15:01:06;10.00;;;5.03;;
6111;SDS011;3086;48.802;9.394;2023-08-24T15:04:27;8.60;;;4.70;;
6111;SDS011;3086;48.802;9.394;2023-08-24T15:07:49;11.00;;;5.27;;
6111;SDS011;3086;48.802;9.394;2023-08-24T15:11:18;12.33;;;5.20;;
6111;SDS011;3086;48.802;9.394;2023-08-24T15:14:45;12.83;;;5.10;;
6111;SDS011;3086;48.802;9.394;2023-08-24T15:18:18;16.27;;;5.27;;
6111;SDS011;3086;48.802;9.394;2023-08-24T15:21:47;18.87;;;4.90;;
6111;SDS011;3086;48.802;9.394;2023-08-24T15:25:09;13.20;;;4.50;;
6111;SDS011;3086;48.802;9.394;2023-08-24T15:28:35;14.37;;;4.20;;
6111;SDS011;3086;48.802;9.394;2023-08-24T15:31:58;5.83;;;4.10;;
6111;SDS011;3086;48.802;9.394;2023-08-24T15:35:20;9.20;;;4.47;;
6111;SDS011;3086;48.802;9.394;2023-08-24T15:38:41;6.93;;;4.23;;
6111;SDS011;3086;48.802;9.394;2023-08-24T15:42:03;8.67;;;3.70;;
6111;SDS011;3086;48.802;9.394;2023-08-24T15:45:27;6.57;;;4.23;;
6111;SDS011;3086;48.802;9.394;2023-08-24T15:48:50;6.53;;;3.90;;
6111;SDS011;3086;48.802;9.394;2023-08-24T15:52:15;4.63;;;3.20;;
6111;SDS011;3086;48.802;9.394;2023-08-24T15:55:37;5.57;;;3.10;;
6111;SDS011;3086;48.802;9.394;2023-08-24T15:58:58;4.40;;;3.30;;
6111;SDS011;3086;48.802;9.394;2023-08-24T16:02:20;5.30;;;3.10;;
6111;SDS011;3086;48.802;9.394;2023-08-24T16:05:43;4.20;;;2.80;;
6111;SDS011;3086;48.802;9.394;2023-08-24T16:09:04;4.17;;;2.97;;
6111;SDS011;3086;48.802;9.394;2023-08-24T16:12:26;7.30;;;2.50;;
6111;SDS011;3086;48.802;9.394;2023-08-24T16:15:47;7.37;;;2.80;;
6111;SDS011;3086;48.802;9.394;2023-08-24T16:19:09;2.90;;;2.57;;
6111;SDS011;3086;48.802;9.394;2023-08-24T16:22:34;5.10;;;2.70;;
6111;SDS011;3086;48.802;9.394;2023-08-24T16:25:56;3.47;;;2.47;;
6111;SDS011;3086;48.802;9.394;2023-08-24T16:29:17;8.60;;;2.03;;
6111;SDS011;3086;48.802;9.394;2023-08-24T16:32:39;3.80;;;2.37;;
6111;SDS011;3086;48.802;9.394;2023-08-24T16:36:00;3.90;;;2.40;;
6111;SDS011;3086;48.802;9.394;2023-08-24T16:39:23;3.53;;;2.40;;
6111;SDS011;3086;48.802;9.394;2023-08-24T16:42:49;6.17;;;2.13;;
6111;SDS011;3086;48.802;9.394;2023-08-24T16:46:12;2.53;;;2.27;;
6111;SDS011;3086;48.802;9.394;2023-08-24T16:49:34;4.10;;;2.23;;
6111;SDS011;3086;48.802;9.394;2023-08-24T16:52:55;3.27;;;2.13;;
6111;SDS011;3086;48.802;9.394;2023-08-24T16:56:18;3.93;;;2.27;;
6111;SDS011;3086;48.802;9.394;2023-08-24T16:59:40;2.50;;;2.20;;
6111;SDS011;3086;48.802;9.394;2023-08-24T17:03:02;4.00;;;2.30;;
6111;SDS011;3086;48.802;9.394;2023-08-24T17:06:23;3.50;;;2.27;;
6111;SDS011;3086;48.802;9.394;2023-08-24T17:09:45;5.27;;;2.73;;
6111;SDS011;3086;48.802;9.394;2023-08-24T17:13:08;4.23;;;2.40;;
6111;SDS011;3086;48.802;9.394;2023-08-24T17:16:29;4.63;;;2.90;;
6111;SDS011;3086;48.802;9.394;2023-08-24T17:19:51;2.77;;;2.40;;
6111;SDS011;3086;48.802;9.394;2023-08-24T17:23:12;4.47;;;2.63;;
6111;SDS011;3086;48.802;9.394;2023-08-24T17:26:34;3.97;;;2.23;;
6111;SDS011;3086;48.802;9.394;2023-08-24T17:29:57;3.07;;;2.33;;
6111;SDS011;3086;48.802;9.394;2023-08-24T17:33:19;4.80;;;2.40;;
6111;SDS011;3086;48.802;9.394;2023-08-24T17:36:41;3.53;;;2.07;;
6111;SDS011;3086;48.802;9.394;2023-08-24T17:40:03;3.87;;;2.30;;
6111;SDS011;3086;48.802;9.394;2023-08-24T17:43:27;3.30;;;2.00;;
6111;SDS011;3086;48.802;9.394;2023-08-24T17:46:50;5.37;;;2.27;;
6111;SDS011;3086;48.802;9.394;2023-08-24T17:50:11;4.67;;;2.70;;
6111;SDS011;3086;48.802;9.394;2023-08-24T17:53:33;5.50;;;2.30;;
6111;SDS011;3086;48.802;9.394;2023-08-24T17:56:55;4.33;;;2.30;;
6111;SDS011;3086;48.802;9.394;2023-08-24T18:00:17;7.97;;;2.33;;
6111;SDS011;3086;48.802;9.394;2023-08-24T18:03:40;3.40;;;2.50;;
6111;SDS011;3086;48.802;9.394;2023-08-24T18:07:01;3.60;;;2.10;;
6111;SDS011;3086;48.802;9.394;2023-08-24T18:10:23;2.77;;;2.20;;
6111;SDS011;3086;48.802;9.394;2023-08-24T18:13:45;2.87;;;2.20;;
6111;SDS011;3086;48.802;9.394;2023-08-24T18:17:07;8.50;;;3.27;;
6111;SDS011;3086;48.802;9.394;2023-08-24T18:20:30;2.83;;;2.53;;
6111;SDS011;3086;48.802;9.394;2023-08-24T18:23:52;6.53;;;2.60;;
6111;SDS011;3086;48.802;9.394;2023-08-24T18:27:13;4.70;;;2.83;;
6111;SDS011;3086;48.802;9.394;2023-08-24T18:30:35;3.80;;;2.57;;
6111;SDS011;3086;48.802;9.394;2023-08-24T18:33:56;4.53;;;3.03;;
6111;SDS011;3086;48.802;9.394;2023-08-24T18:37:20;5.70;;;3.00;;
6111;SDS011;3086;48.802;9.394;2023-08-24T18:40:41;6.30;;;2.80;;
6111;SDS011;3086;48.802;9.394;2023-08-24T18:44:06;4.50;;;3.30;;
6111;SDS011;3086;48.802;9.394;2023-08-24T18:47:27;3.93;;;2.90;;
6111;SDS011;3086;48.802;9.394;2023-08-24T18:50:51;3.63;;;2.97;;
6111;SDS011;3086;48.802;9.394;2023-08-24T18:54:14;4.33;;;3.60;;
6111;SDS011;3086;48.802;9.394;2023-08-24T18:57:35;6.60;;;3.23;;
6111;SDS011;3086;48.802;9.394;2023-08-24T19:00:58;4.20;;;3.80;;
6111;SDS011;3086;48.802;9.394;2023-08-24T19:04:21;4.20;;;3.80;;
6111;SDS011;3086;48.802;9.394;2023-08-24T19:07:42;5.27;;;4.00;;
6111;SDS011;3086;48.802;9.394;2023-08-24T19:11:05;8.63;;;4.60;;
6111;SDS011;3086;48.802;9.394;2023-08-24T19:14:28;9.17;;;4.83;;
6111;SDS011;3086;48.802;9.394;2023-08-24T19:17:51;9.00;;;4.87;;
6111;SDS011;3086;48.802;9.394;2023-08-24T19:21:12;7.70;;;5.50;;
6111;SDS011;3086;48.802;9.394;2023-08-24T19:24:34;10.70;;;6.20;;
6111;SDS011;3086;48.802;9.394;2023-08-24T19:27:57;16.93;;;9.47;;
6111;SDS011;3086;48.802;9.394;2023-08-24T19:31:19;12.60;;;8.30;;
6111;SDS011;3086;48.802;9.394;2023-08-24T19:34:40;13.27;;;7.73;;
6111;SDS011;3086;48.802;9.394;2023-08-24T19:38:02;10.03;;;8.33;;
6111;SDS011;3086;48.802;9.394;2023-08-24T19:41:23;9.53;;;7.20;;
6111;SDS011;3086;48.802;9.394;2023-08-24T19:44:47;10.03;;;5.60;;
6111;SDS011;3086;48.802;9.394;2023-08-24T19:48:09;10.93;;;5.10;;
6111;SDS011;3086;48.802;9.394;2023-08-24T19:51:32;8.17;;;5.33;;
6111;SDS011;3086;48.802;9.394;2023-08-24T19:54:53;8.40;;;4.73;;
6111;SDS011;3086;48.802;9.394;2023-08-24T19:58:15;7.07;;;4.50;;
6111;SDS011;3086;48.802;9.394;2023-08-24T20:01:38;5.73;;;5.00;;
6111;SDS011;3086;48.802;9.394;2023-08-24T20:04:59;6.53;;;5.00;;
6111;SDS011;3086;48.802;9.394;2023-08-24T20:08:21;7.60;;;5.07;;
6111;SDS011;3086;48.802;9.394;2023-08-24T20:11:42;5.50;;;5.00;;
6111;SDS011;3086;48.802;9.394;2023-08-24T20:15:04;8.63;;;5.73;;
6111;SDS011;3086;48.802;9.394;2023-08-24T20:18:29;10.03;;;6.37;;
6111;SDS011;3086;48.802;9.394;2023-08-24T20:21:52;7.23;;;5.03;;
6111;SDS011;3086;48.802;9.394;2023-08-24T20:25:13;6.47;;;4.60;;
6111;SDS011;3086;48.802;9.394;2023-08-24T20:28:37;4.70;;;4.20;;
6111;SDS011;3086;48.802;9.394;2023-08-24T20:31:59;6.60;;;4.70;;
6111;SDS011;3086;48.802;9.394;2023-08-24T20:35:23;6.07;;;4.97;;
6111;SDS011;3086;48.802;9.394;2023-08-24T20:38:44;7.83;;;4.77;;
6111;SDS011;3086;48.802;9.394;2023-08-24T20:42:12;8.00;;;4.60;;
6111;SDS011;3086;48.802;9.394;2023-08-24T20:45:35;6.00;;;3.90;;
6111;SDS011;3086;48.802;9.394;2023-08-24T20:48:56;6.40;;;3.57;;
6111;SDS011;3086;48.802;9.394;2023-08-24T20:52:20;3.57;;;3.27;;
6111;SDS011;3086;48.802;9.394;2023-08-24T20:55:42;4.93;;;3.53;;
6111;SDS011;3086;48.802;9.394;2023-08-24T20:59:04;3.77;;;2.97;;
6111;SDS011;3086;48.802;9.394;2023-08-24T21:02:26;4.23;;;3.07;;